sensor_id;sensor_type;location;lat;lon;timestamp;temperature;humidity
4556;DHT22;2290;48.674;9.018;2023-05-21T00:00:27;16.70;99.90
4556;DHT22;2290;48.674;9.018;2023-05-21T00:02:53;16.70;99.90
4556;DHT22;2290;48.674;9.018;2023-05-21T00:05:20;16.70;99.90
4556;DHT22;2290;48.674;9.018;2023-05-21T00:07:47;16.60;99.90
4556;DHT22;2290;48.674;9.018;2023-05-21T00:10:12;16.70;99.90
4556;DHT22;2290;48.674;9.018;2023-05-21T00:12:38;16.60;99.90
4556;DHT22;2290;48.674;9.018;2023-05-21T00:15:04;16.70;99.90
4556;DHT22;2290;48.674;9.018;2023-05-21T00:17:31;16.60;99.90
4556;DHT22;2290;48.674;9.018;2023-05-21T00:20:01;16.60;99.90
4556;DHT22;2290;48.674;9.018;2023-05-21T00:22:30;16.50;99.90
4556;DHT22;2290;48.674;9.018;2023-05-21T00:24:58;16.50;99.90
4556;DHT22;2290;48.674;9.018;2023-05-21T00:27:23;16.50;99.90
4556;DHT22;2290;48.674;9.018;2023-05-21T00:29:49;16.40;99.90
4556;DHT22;2290;48.674;9.018;2023-05-21T00:32:14;16.40;99.90
4556;DHT22;2290;48.674;9.018;2023-05-21T00:34:40;16.40;99.90
4556;DHT22;2290;48.674;9.018;2023-05-21T00:37:05;16.30;99.90
4556;DHT22;2290;48.674;9.018;2023-05-21T00:39:34;16.30;99.90
4556;DHT22;2290;48.674;9.018;2023-05-21T00:41:59;16.30;99.90
4556;DHT22;2290;48.674;9.018;2023-05-21T00:44:25;16.30;99.90
4556;DHT22;2290;48.674;9.018;2023-05-21T00:46:54;16.30;99.90
4556;DHT22;2290;48.674;9.018;2023-05-21T00:49:21;16.30;99.90
4556;DHT22;2290;48.674;9.018;2023-05-21T00:51:48;16.30;99.90
4556;DHT22;2290;48.674;9.018;2023-05-21T00:54:14;16.20;99.90
4556;DHT22;2290;48.674;9.018;2023-05-21T00:56:40;16.20;99.90
4556;DHT22;2290;48.674;9.018;2023-05-21T00:59:06;16.10;99.90
4556;DHT22;2290;48.674;9.018;2023-05-21T01:01:32;16.10;99.90
4556;DHT22;2290;48.674;9.018;2023-05-21T01:04:01;16.00;99.90
4556;DHT22;2290;48.674;9.018;2023-05-21T01:06:27;15.90;99.90
4556;DHT22;2290;48.674;9.018;2023-05-21T01:08:54;15.90;99.90
4556;DHT22;2290;48.674;9.018;2023-05-21T01:11:31;15.90;99.90
4556;DHT22;2290;48.674;9.018;2023-05-21T01:14:02;15.90;99.90
4556;DHT22;2290;48.674;9.018;2023-05-21T01:16:28;15.90;99.90
4556;DHT22;2290;48.674;9.018;2023-05-21T01:18:53;15.90;99.90
4556;DHT22;2290;48.674;9.018;2023-05-21T01:21:20;15.90;99.90
4556;DHT22;2290;48.674;9.018;2023-05-21T01:23:49;15.80;99.90
4556;DHT22;2290;48.674;9.018;2023-05-21T01:26:15;15.80;99.90
4556;DHT22;2290;48.674;9.018;2023-05-21T01:28:41;15.80;99.90
4556;DHT22;2290;48.674;9.018;2023-05-21T01:31:22;15.80;99.90
4556;DHT22;2290;48.674;9.018;2023-05-21T01:33:51;15.80;99.90
4556;DHT22;2290;48.674;9.018;2023-05-21T01:36:22;15.80;99.90
4556;DHT22;2290;48.674;9.018;2023-05-21T01:39:04;15.80;99.90
4556;DHT22;2290;48.674;9.018;2023-05-21T01:41:35;15.80;99.90
4556;DHT22;2290;48.674;9.018;2023-05-21T01:44:04;15.70;99.90
4556;DHT22;2290;48.674;9.018;2023-05-21T01:46:33;15.60;99.90
4556;DHT22;2290;48.674;9.018;2023-05-21T01:49:01;15.50;99.90
4556;DHT22;2290;48.674;9.018;2023-05-21T01:51:27;15.60;99.90
4556;DHT22;2290;48.674;9.018;2023-05-21T01:53:53;15.60;99.90
4556;DHT22;2290;48.674;9.018;2023-05-21T01:56:18;15.60;99.90
4556;DHT22;2290;48.674;9.018;2023-05-21T01:58:47;15.50;99.90
4556;DHT22;2290;48.674;9.018;2023-05-21T02:01:14;15.50;99.90
4556;DHT22;2290;48.674;9.018;2023-05-21T02:03:39;15.50;99.90
4556;DHT22;2290;48.674;9.018;2023-05-21T02:06:06;15.50;99.90
4556;DHT22;2290;48.674;9.018;2023-05-21T02:08:32;15.50;99.90
4556;DHT22;2290;48.674;9.018;2023-05-21T02:10:58;15.50;99.90
4556;DHT22;2290;48.674;9.018;2023-05-21T02:13:24;15.50;99.90
4556;DHT22;2290;48.674;9.018;2023-05-21T02:15:49;15.40;99.90
4556;DHT22;2290;48.674;9.018;2023-05-21T02:18:19;15.40;99.90
4556;DHT22;2290;48.674;9.018;2023-05-21T02:20:46;15.40;99.90
4556;DHT22;2290;48.674;9.018;2023-05-21T02:23:11;15.30;99.90
4556;DHT22;2290;48.674;9.018;2023-05-21T02:25:37;15.40;99.90
4556;DHT22;2290;48.674;9.018;2023-05-21T02:28:03;15.30;99.90
4556;DHT22;2290;48.674;9.018;2023-05-21T02:30:28;15.30;99.90
4556;DHT22;2290;48.674;9.018;2023-05-21T02:32:54;15.30;99.90
4556;DHT22;2290;48.674;9.018;2023-05-21T02:35:20;15.30;99.90
4556;DHT22;2290;48.674;9.018;2023-05-21T02:37:45;15.30;99.90
4556;DHT22;2290;48.674;9.018;2023-05-21T02:40:11;15.30;99.90
4556;DHT22;2290;48.674;9.018;2023-05-21T02:42:38;15.30;99.90
4556;DHT22;2290;48.674;9.018;2023-05-21T02:45:08;15.30;99.90
4556;DHT22;2290;48.674;9.018;2023-05-21T02:47:34;15.20;99.90
4556;DHT22;2290;48.674;9.018;2023-05-21T02:50:00;15.10;99.90
4556;DHT22;2290;48.674;9.018;2023-05-21T02:52:26;15.10;99.90
4556;DHT22;2290;48.674;9.018;2023-05-21T02:54:52;15.00;99.90
4556;DHT22;2290;48.674;9.018;2023-05-21T02:57:18;15.00;99.90
4556;DHT22;2290;48.674;9.018;2023-05-21T02:59:44;15.00;99.90
4556;DHT22;2290;48.674;9.018;2023-05-21T03:02:10;14.80;99.90
4556;DHT22;2290;48.674;9.018;2023-05-21T03:04:36;14.80;99.90
4556;DHT22;2290;48.674;9.018;2023-05-21T03:07:04;14.80;99.90
4556;DHT22;2290;48.674;9.018;2023-05-21T03:09:29;14.80;99.90
4556;DHT22;2290;48.674;9.018;2023-05-21T03:11:57;14.80;99.90
4556;DHT22;2290;48.674;9.018;2023-05-21T03:14:22;14.80;99.90
4556;DHT22;2290;48.674;9.018;2023-05-21T03:16:49;14.80;99.90
4556;DHT22;2290;48.674;9.018;2023-05-21T03:19:15;14.80;99.90
4556;DHT22;2290;48.674;9.018;2023-05-21T03:21:41;14.80;99.90
4556;DHT22;2290;48.674;9.018;2023-05-21T03:24:07;14.80;99.90
4556;DHT22;2290;48.674;9.018;2023-05-21T03:26:34;14.80;99.90
4556;DHT22;2290;48.674;9.018;2023-05-21T03:28:59;14.80;99.90
4556;DHT22;2290;48.674;9.018;2023-05-21T03:31:26;14.80;99.90
4556;DHT22;2290;48.674;9.018;2023-05-21T03:33:51;14.90;99.90
4556;DHT22;2290;48.674;9.018;2023-05-21T03:36:18;14.80;99.90
4556;DHT22;2290;48.674;9.018;2023-05-21T03:38:44;14.80;99.90
4556;DHT22;2290;48.674;9.018;2023-05-21T03:41:11;14.80;99.90
4556;DHT22;2290;48.674;9.018;2023-05-21T03:43:37;14.70;99.90
4556;DHT22;2290;48.674;9.018;2023-05-21T03:46:02;14.60;99.90
4556;DHT22;2290;48.674;9.018;2023-05-21T03:48:28;14.60;99.90
4556;DHT22;2290;48.674;9.018;2023-05-21T03:50:53;14.60;99.90
4556;DHT22;2290;48.674;9.018;2023-05-21T03:53:19;14.60;99.90
4556;DHT22;2290;48.674;9.018;2023-05-21T03:55:45;14.60;99.90
4556;DHT22;2290;48.674;9.018;2023-05-21T03:58:11;14.60;99.90
4556;DHT22;2290;48.674;9.018;2023-05-21T04:00:37;14.50;99.90
4556;DHT22;2290;48.674;9.018;2023-05-21T04:03:03;14.50;99.90
4556;DHT22;2290;48.674;9.018;2023-05-21T04:05:29;14.50;99.90
4556;DHT22;2290;48.674;9.018;2023-05-21T04:07:54;14.50;99.90
4556;DHT22;2290;48.674;9.018;2023-05-21T04:10:20;14.60;99.90
4556;DHT22;2290;48.674;9.018;2023-05-21T04:12:48;14.60;99.90
4556;DHT22;2290;48.674;9.018;2023-05-21T04:15:17;14.60;99.90
4556;DHT22;2290;48.674;9.018;2023-05-21T04:17:43;14.60;99.90
4556;DHT22;2290;48.674;9.018;2023-05-21T04:20:10;14.60;99.90
4556;DHT22;2290;48.674;9.018;2023-05-21T04:22:38;14.60;99.90
4556;DHT22;2290;48.674;9.018;2023-05-21T04:25:04;14.70;99.90
4556;DHT22;2290;48.674;9.018;2023-05-21T04:27:29;14.60;99.90
4556;DHT22;2290;48.674;9.018;2023-05-21T04:29:55;14.70;99.90
4556;DHT22;2290;48.674;9.018;2023-05-21T04:32:22;14.70;99.90
4556;DHT22;2290;48.674;9.018;2023-05-21T04:34:48;14.70;99.90
4556;DHT22;2290;48.674;9.018;2023-05-21T04:37:14;14.80;99.90
4556;DHT22;2290;48.674;9.018;2023-05-21T04:39:42;14.80;99.90
4556;DHT22;2290;48.674;9.018;2023-05-21T04:42:08;14.80;99.90
4556;DHT22;2290;48.674;9.018;2023-05-21T04:44:35;14.70;99.90
4556;DHT22;2290;48.674;9.018;2023-05-21T04:47:01;14.70;99.90
4556;DHT22;2290;48.674;9.018;2023-05-21T04:49:27;14.80;99.90
4556;DHT22;2290;48.674;9.018;2023-05-21T04:51:54;14.80;99.90
4556;DHT22;2290;48.674;9.018;2023-05-21T04:54:19;14.90;99.90
4556;DHT22;2290;48.674;9.018;2023-05-21T04:56:45;14.90;99.90
4556;DHT22;2290;48.674;9.018;2023-05-21T04:59:12;14.90;99.90
4556;DHT22;2290;48.674;9.018;2023-05-21T05:01:37;14.90;99.90
4556;DHT22;2290;48.674;9.018;2023-05-21T05:04:03;14.90;99.90
4556;DHT22;2290;48.674;9.018;2023-05-21T05:06:29;15.00;99.90
4556;DHT22;2290;48.674;9.018;2023-05-21T05:08:55;15.00;99.90
4556;DHT22;2290;48.674;9.018;2023-05-21T05:11:21;15.10;99.90
4556;DHT22;2290;48.674;9.018;2023-05-21T05:13:46;15.10;99.90
4556;DHT22;2290;48.674;9.018;2023-05-21T05:16:12;15.20;99.90
4556;DHT22;2290;48.674;9.018;2023-05-21T05:18:38;15.20;99.90
4556;DHT22;2290;48.674;9.018;2023-05-21T05:21:04;15.20;99.90
4556;DHT22;2290;48.674;9.018;2023-05-21T05:23:31;15.30;99.90
4556;DHT22;2290;48.674;9.018;2023-05-21T05:25:56;15.30;99.90
4556;DHT22;2290;48.674;9.018;2023-05-21T05:28:23;15.30;99.90
4556;DHT22;2290;48.674;9.018;2023-05-21T05:30:49;15.30;99.90
4556;DHT22;2290;48.674;9.018;2023-05-21T05:33:14;15.30;99.90
4556;DHT22;2290;48.674;9.018;2023-05-21T05:35:41;15.40;99.90
4556;DHT22;2290;48.674;9.018;2023-05-21T05:38:09;15.40;99.90
4556;DHT22;2290;48.674;9.018;2023-05-21T05:40:34;15.50;99.90
4556;DHT22;2290;48.674;9.018;2023-05-21T05:43:00;15.50;99.90
4556;DHT22;2290;48.674;9.018;2023-05-21T05:45:25;15.60;99.90
4556;DHT22;2290;48.674;9.018;2023-05-21T05:47:51;15.70;99.90
4556;DHT22;2290;48.674;9.018;2023-05-21T05:50:17;15.70;99.90
4556;DHT22;2290;48.674;9.018;2023-05-21T05:52:42;15.70;99.90
4556;DHT22;2290;48.674;9.018;2023-05-21T05:55:09;15.90;99.90
4556;DHT22;2290;48.674;9.018;2023-05-21T05:57:37;15.90;99.90
4556;DHT22;2290;48.674;9.018;2023-05-21T06:00:03;16.00;99.90
4556;DHT22;2290;48.674;9.018;2023-05-21T06:02:29;16.00;99.90
4556;DHT22;2290;48.674;9.018;2023-05-21T06:04:55;16.00;99.90
4556;DHT22;2290;48.674;9.018;2023-05-21T06:07:20;16.10;99.90
4556;DHT22;2290;48.674;9.018;2023-05-21T06:09:46;16.10;99.90
4556;DHT22;2290;48.674;9.018;2023-05-21T06:12:11;16.20;99.90
4556;DHT22;2290;48.674;9.018;2023-05-21T06:14:40;16.30;99.90
4556;DHT22;2290;48.674;9.018;2023-05-21T06:17:06;16.30;99.90
4556;DHT22;2290;48.674;9.018;2023-05-21T06:19:31;16.40;99.90
4556;DHT22;2290;48.674;9.018;2023-05-21T06:21:57;16.40;99.90
4556;DHT22;2290;48.674;9.018;2023-05-21T06:24:23;16.50;99.90
4556;DHT22;2290;48.674;9.018;2023-05-21T06:26:49;16.50;99.90
4556;DHT22;2290;48.674;9.018;2023-05-21T06:29:16;16.50;99.90
4556;DHT22;2290;48.674;9.018;2023-05-21T06:31:43;16.50;99.90
4556;DHT22;2290;48.674;9.018;2023-05-21T06:34:11;16.60;99.90
4556;DHT22;2290;48.674;9.018;2023-05-21T06:36:36;16.60;99.90
4556;DHT22;2290;48.674;9.018;2023-05-21T06:39:03;16.70;99.90
4556;DHT22;2290;48.674;9.018;2023-05-21T06:41:30;16.70;99.90
4556;DHT22;2290;48.674;9.018;2023-05-21T06:43:57;16.80;99.90
4556;DHT22;2290;48.674;9.018;2023-05-21T06:46:24;16.90;99.90
4556;DHT22;2290;48.674;9.018;2023-05-21T06:48:49;16.90;99.90
4556;DHT22;2290;48.674;9.018;2023-05-21T06:51:16;17.00;99.90
4556;DHT22;2290;48.674;9.018;2023-05-21T06:53:42;17.00;99.90
4556;DHT22;2290;48.674;9.018;2023-05-21T06:56:07;17.00;99.90
4556;DHT22;2290;48.674;9.018;2023-05-21T06:58:33;17.10;99.90
4556;DHT22;2290;48.674;9.018;2023-05-21T07:01:00;17.00;99.90
4556;DHT22;2290;48.674;9.018;2023-05-21T07:03:26;17.00;99.90
4556;DHT22;2290;48.674;9.018;2023-05-21T07:05:53;17.10;99.90
4556;DHT22;2290;48.674;9.018;2023-05-21T07:08:18;17.30;99.90
4556;DHT22;2290;48.674;9.018;2023-05-21T07:10:48;17.40;99.90
4556;DHT22;2290;48.674;9.018;2023-05-21T07:13:14;17.40;99.90
4556;DHT22;2290;48.674;9.018;2023-05-21T07:15:41;17.50;99.90
4556;DHT22;2290;48.674;9.018;2023-05-21T07:18:07;17.60;99.90
4556;DHT22;2290;48.674;9.018;2023-05-21T07:20:32;17.70;99.90
4556;DHT22;2290;48.674;9.018;2023-05-21T07:23:00;17.80;99.90
4556;DHT22;2290;48.674;9.018;2023-05-21T07:25:35;17.90;99.90
4556;DHT22;2290;48.674;9.018;2023-05-21T07:28:01;18.10;99.90
4556;DHT22;2290;48.674;9.018;2023-05-21T07:30:26;18.20;99.90
4556;DHT22;2290;48.674;9.018;2023-05-21T07:32:53;18.40;99.90
4556;DHT22;2290;48.674;9.018;2023-05-21T07:35:19;18.50;99.90
4556;DHT22;2290;48.674;9.018;2023-05-21T07:37:46;18.60;99.90
4556;DHT22;2290;48.674;9.018;2023-05-21T07:40:12;18.70;99.90
4556;DHT22;2290;48.674;9.018;2023-05-21T07:42:38;18.80;99.90
4556;DHT22;2290;48.674;9.018;2023-05-21T07:45:04;19.00;99.90
4556;DHT22;2290;48.674;9.018;2023-05-21T07:47:30;19.00;99.90
4556;DHT22;2290;48.674;9.018;2023-05-21T07:49:56;19.10;99.90
4556;DHT22;2290;48.674;9.018;2023-05-21T07:52:23;19.10;99.90
4556;DHT22;2290;48.674;9.018;2023-05-21T07:54:48;19.10;99.90
4556;DHT22;2290;48.674;9.018;2023-05-21T07:57:14;19.20;99.90
4556;DHT22;2290;48.674;9.018;2023-05-21T07:59:39;19.30;99.90
4556;DHT22;2290;48.674;9.018;2023-05-21T08:02:07;19.40;99.90
4556;DHT22;2290;48.674;9.018;2023-05-21T08:04:33;19.60;99.90
4556;DHT22;2290;48.674;9.018;2023-05-21T08:06:59;19.70;99.90
4556;DHT22;2290;48.674;9.018;2023-05-21T08:09:24;19.80;99.90
4556;DHT22;2290;48.674;9.018;2023-05-21T08:11:50;19.90;99.90
4556;DHT22;2290;48.674;9.018;2023-05-21T08:14:16;20.00;99.90
4556;DHT22;2290;48.674;9.018;2023-05-21T08:16:42;20.00;99.90
4556;DHT22;2290;48.674;9.018;2023-05-21T08:19:10;20.10;99.90
4556;DHT22;2290;48.674;9.018;2023-05-21T08:21:36;20.20;99.90
4556;DHT22;2290;48.674;9.018;2023-05-21T08:24:02;20.30;99.90
4556;DHT22;2290;48.674;9.018;2023-05-21T08:26:28;20.50;99.90
4556;DHT22;2290;48.674;9.018;2023-05-21T08:28:55;20.50;99.90
4556;DHT22;2290;48.674;9.018;2023-05-21T08:31:20;20.60;99.90
4556;DHT22;2290;48.674;9.018;2023-05-21T08:33:50;20.60;99.90
4556;DHT22;2290;48.674;9.018;2023-05-21T08:36:17;20.70;99.90
4556;DHT22;2290;48.674;9.018;2023-05-21T08:38:44;20.70;99.90
4556;DHT22;2290;48.674;9.018;2023-05-21T08:41:11;20.80;99.90
4556;DHT22;2290;48.674;9.018;2023-05-21T08:43:38;20.90;99.90
4556;DHT22;2290;48.674;9.018;2023-05-21T08:46:05;20.90;99.90
4556;DHT22;2290;48.674;9.018;2023-05-21T08:48:31;21.10;99.90
4556;DHT22;2290;48.674;9.018;2023-05-21T08:50:58;21.20;99.90
4556;DHT22;2290;48.674;9.018;2023-05-21T08:53:24;21.40;99.90
4556;DHT22;2290;48.674;9.018;2023-05-21T08:55:52;21.60;99.90
4556;DHT22;2290;48.674;9.018;2023-05-21T08:58:21;21.70;99.90
4556;DHT22;2290;48.674;9.018;2023-05-21T09:00:49;21.60;99.90
4556;DHT22;2290;48.674;9.018;2023-05-21T09:03:15;21.60;99.90
4556;DHT22;2290;48.674;9.018;2023-05-21T09:05:43;21.60;99.90
4556;DHT22;2290;48.674;9.018;2023-05-21T09:08:23;21.70;99.90
4556;DHT22;2290;48.674;9.018;2023-05-21T09:10:51;21.80;99.90
4556;DHT22;2290;48.674;9.018;2023-05-21T09:13:17;21.90;99.90
4556;DHT22;2290;48.674;9.018;2023-05-21T09:15:44;22.00;99.90
4556;DHT22;2290;48.674;9.018;2023-05-21T09:18:10;22.10;99.90
4556;DHT22;2290;48.674;9.018;2023-05-21T09:20:36;22.30;99.90
4556;DHT22;2290;48.674;9.018;2023-05-21T09:23:04;22.50;99.90
4556;DHT22;2290;48.674;9.018;2023-05-21T09:25:31;22.70;99.90
4556;DHT22;2290;48.674;9.018;2023-05-21T09:27:58;22.80;99.90
4556;DHT22;2290;48.674;9.018;2023-05-21T09:30:24;22.80;99.90
4556;DHT22;2290;48.674;9.018;2023-05-21T09:32:56;22.90;99.90
4556;DHT22;2290;48.674;9.018;2023-05-21T09:35:22;23.00;99.90
4556;DHT22;2290;48.674;9.018;2023-05-21T09:37:50;23.00;99.90
4556;DHT22;2290;48.674;9.018;2023-05-21T09:40:22;23.10;99.90
4556;DHT22;2290;48.674;9.018;2023-05-21T09:42:55;23.10;99.90
4556;DHT22;2290;48.674;9.018;2023-05-21T09:45:25;23.10;99.90
4556;DHT22;2290;48.674;9.018;2023-05-21T09:47:52;23.10;99.90
4556;DHT22;2290;48.674;9.018;2023-05-21T09:50:25;23.20;99.90
4556;DHT22;2290;48.674;9.018;2023-05-21T09:52:57;23.20;99.90
4556;DHT22;2290;48.674;9.018;2023-05-21T09:55:24;23.30;99.90
4556;DHT22;2290;48.674;9.018;2023-05-21T09:57:51;23.20;99.90
4556;DHT22;2290;48.674;9.018;2023-05-21T10:00:34;23.30;99.90
4556;DHT22;2290;48.674;9.018;2023-05-21T10:03:00;23.40;99.90
4556;DHT22;2290;48.674;9.018;2023-05-21T10:05:28;23.30;99.90
4556;DHT22;2290;48.674;9.018;2023-05-21T10:08:01;23.30;99.90
4556;DHT22;2290;48.674;9.018;2023-05-21T10:10:28;23.40;99.90
4556;DHT22;2290;48.674;9.018;2023-05-21T10:13:04;23.50;99.90
4556;DHT22;2290;48.674;9.018;2023-05-21T10:15:36;23.60;99.90
4556;DHT22;2290;48.674;9.018;2023-05-21T10:18:02;23.60;99.90
4556;DHT22;2290;48.674;9.018;2023-05-21T10:20:30;23.70;99.90
4556;DHT22;2290;48.674;9.018;2023-05-21T10:22:58;23.80;99.90
4556;DHT22;2290;48.674;9.018;2023-05-21T10:25:25;23.90;99.90
4556;DHT22;2290;48.674;9.018;2023-05-21T10:27:53;24.10;99.90
4556;DHT22;2290;48.674;9.018;2023-05-21T10:30:20;24.20;99.90
4556;DHT22;2290;48.674;9.018;2023-05-21T10:32:49;24.30;99.90
4556;DHT22;2290;48.674;9.018;2023-05-21T10:35:15;24.40;99.90
4556;DHT22;2290;48.674;9.018;2023-05-21T10:37:45;24.40;99.90
4556;DHT22;2290;48.674;9.018;2023-05-21T10:40:12;24.20;99.90
4556;DHT22;2290;48.674;9.018;2023-05-21T10:43:07;23.90;99.90
4556;DHT22;2290;48.674;9.018;2023-05-21T10:51:25;24.30;99.90
4556;DHT22;2290;48.674;9.018;2023-05-21T10:57:04;24.50;99.90
4556;DHT22;2290;48.674;9.018;2023-05-21T10:59:47;24.50;99.90
4556;DHT22;2290;48.674;9.018;2023-05-21T11:02:14;24.50;99.90
4556;DHT22;2290;48.674;9.018;2023-05-21T11:04:43;24.50;99.90
4556;DHT22;2290;48.674;9.018;2023-05-21T11:07:11;24.60;99.90
4556;DHT22;2290;48.674;9.018;2023-05-21T11:09:37;24.80;99.90
4556;DHT22;2290;48.674;9.018;2023-05-21T11:12:04;24.80;99.90
4556;DHT22;2290;48.674;9.018;2023-05-21T11:17:16;24.90;99.90
4556;DHT22;2290;48.674;9.018;2023-05-21T11:20:03;25.00;99.90
4556;DHT22;2290;48.674;9.018;2023-05-21T11:22:34;25.10;99.90
4556;DHT22;2290;48.674;9.018;2023-05-21T11:25:01;25.30;99.90
4556;DHT22;2290;48.674;9.018;2023-05-21T11:30:00;25.40;99.90
4556;DHT22;2290;48.674;9.018;2023-05-21T11:32:28;25.50;99.90
4556;DHT22;2290;48.674;9.018;2023-05-21T11:34:58;25.50;99.90
4556;DHT22;2290;48.674;9.018;2023-05-21T11:37:27;25.50;99.90
4556;DHT22;2290;48.674;9.018;2023-05-21T11:39:56;25.60;99.90
4556;DHT22;2290;48.674;9.018;2023-05-21T11:42:34;25.50;99.90
4556;DHT22;2290;48.674;9.018;2023-05-21T11:45:04;25.50;99.90
4556;DHT22;2290;48.674;9.018;2023-05-21T11:47:30;25.50;99.90
4556;DHT22;2290;48.674;9.018;2023-05-21T11:49:59;25.60;99.90
4556;DHT22;2290;48.674;9.018;2023-05-21T11:52:28;25.60;99.90
4556;DHT22;2290;48.674;9.018;2023-05-21T11:54:54;25.60;99.90
4556;DHT22;2290;48.674;9.018;2023-05-21T11:57:24;25.60;99.90
4556;DHT22;2290;48.674;9.018;2023-05-21T11:59:51;25.40;99.90
4556;DHT22;2290;48.674;9.018;2023-05-21T12:02:18;25.40;99.90
4556;DHT22;2290;48.674;9.018;2023-05-21T12:04:47;25.50;99.90
4556;DHT22;2290;48.674;9.018;2023-05-21T12:07:14;25.60;99.90
4556;DHT22;2290;48.674;9.018;2023-05-21T12:09:45;25.60;99.90
4556;DHT22;2290;48.674;9.018;2023-05-21T12:12:24;25.60;99.90
4556;DHT22;2290;48.674;9.018;2023-05-21T12:14:51;25.60;99.90
4556;DHT22;2290;48.674;9.018;2023-05-21T12:17:25;25.70;99.90
4556;DHT22;2290;48.674;9.018;2023-05-21T12:19:54;25.70;99.90
4556;DHT22;2290;48.674;9.018;2023-05-21T12:22:23;25.70;99.90
4556;DHT22;2290;48.674;9.018;2023-05-21T12:24:50;25.70;99.90
4556;DHT22;2290;48.674;9.018;2023-05-21T12:27:19;25.60;99.90
4556;DHT22;2290;48.674;9.018;2023-05-21T12:29:49;25.50;99.90
4556;DHT22;2290;48.674;9.018;2023-05-21T12:32:16;25.50;99.90
4556;DHT22;2290;48.674;9.018;2023-05-21T12:34:47;25.40;99.90
4556;DHT22;2290;48.674;9.018;2023-05-21T12:37:27;25.60;99.90
4556;DHT22;2290;48.674;9.018;2023-05-21T12:40:03;25.60;99.90
4556;DHT22;2290;48.674;9.018;2023-05-21T12:42:36;25.70;99.90
4556;DHT22;2290;48.674;9.018;2023-05-21T12:45:07;25.60;99.90
4556;DHT22;2290;48.674;9.018;2023-05-21T12:47:34;25.60;99.90
4556;DHT22;2290;48.674;9.018;2023-05-21T12:50:03;25.60;99.90
4556;DHT22;2290;48.674;9.018;2023-05-21T12:52:39;25.70;99.90
4556;DHT22;2290;48.674;9.018;2023-05-21T12:55:07;25.80;99.90
4556;DHT22;2290;48.674;9.018;2023-05-21T12:57:36;25.80;99.90
4556;DHT22;2290;48.674;9.018;2023-05-21T13:00:04;25.80;99.90
4556;DHT22;2290;48.674;9.018;2023-05-21T13:02:39;25.70;99.90
4556;DHT22;2290;48.674;9.018;2023-05-21T13:05:10;25.40;99.90
4556;DHT22;2290;48.674;9.018;2023-05-21T13:07:39;25.40;99.90
4556;DHT22;2290;48.674;9.018;2023-05-21T13:10:06;25.30;99.90
4556;DHT22;2290;48.674;9.018;2023-05-21T13:12:32;25.20;99.90
4556;DHT22;2290;48.674;9.018;2023-05-21T13:15:01;25.20;99.90
4556;DHT22;2290;48.674;9.018;2023-05-21T13:17:30;25.30;99.90
4556;DHT22;2290;48.674;9.018;2023-05-21T13:20:14;25.30;99.90
4556;DHT22;2290;48.674;9.018;2023-05-21T13:22:48;25.30;99.90
4556;DHT22;2290;48.674;9.018;2023-05-21T13:25:18;25.20;99.90
4556;DHT22;2290;48.674;9.018;2023-05-21T13:27:46;25.20;99.90
4556;DHT22;2290;48.674;9.018;2023-05-21T13:30:13;25.10;99.90
4556;DHT22;2290;48.674;9.018;2023-05-21T13:32:40;25.10;99.90
4556;DHT22;2290;48.674;9.018;2023-05-21T13:35:06;25.00;99.90
4556;DHT22;2290;48.674;9.018;2023-05-21T13:37:43;25.00;99.90
4556;DHT22;2290;48.674;9.018;2023-05-21T13:40:11;24.90;99.90
4556;DHT22;2290;48.674;9.018;2023-05-21T13:42:39;24.90;99.90
4556;DHT22;2290;48.674;9.018;2023-05-21T13:45:06;24.80;99.90
4556;DHT22;2290;48.674;9.018;2023-05-21T13:47:34;24.80;99.90
4556;DHT22;2290;48.674;9.018;2023-05-21T13:50:00;24.80;99.90
4556;DHT22;2290;48.674;9.018;2023-05-21T13:52:26;24.80;99.90
4556;DHT22;2290;48.674;9.018;2023-05-21T13:54:52;24.80;99.90
4556;DHT22;2290;48.674;9.018;2023-05-21T13:57:17;24.80;99.90
4556;DHT22;2290;48.674;9.018;2023-05-21T13:59:43;24.70;99.90
4556;DHT22;2290;48.674;9.018;2023-05-21T14:02:10;24.70;99.90
4556;DHT22;2290;48.674;9.018;2023-05-21T14:04:38;24.70;99.90
4556;DHT22;2290;48.674;9.018;2023-05-21T14:07:04;24.60;99.90
4556;DHT22;2290;48.674;9.018;2023-05-21T14:09:30;24.50;99.90
4556;DHT22;2290;48.674;9.018;2023-05-21T14:11:56;24.50;99.90
4556;DHT22;2290;48.674;9.018;2023-05-21T14:14:23;24.40;99.90
4556;DHT22;2290;48.674;9.018;2023-05-21T14:16:49;24.40;99.90
4556;DHT22;2290;48.674;9.018;2023-05-21T14:19:15;24.30;99.90
4556;DHT22;2290;48.674;9.018;2023-05-21T14:21:42;24.30;99.90
4556;DHT22;2290;48.674;9.018;2023-05-21T14:24:08;24.40;99.90
4556;DHT22;2290;48.674;9.018;2023-05-21T14:26:44;24.30;99.90
4556;DHT22;2290;48.674;9.018;2023-05-21T14:29:10;24.30;99.90
4556;DHT22;2290;48.674;9.018;2023-05-21T14:31:36;24.20;99.90
4556;DHT22;2290;48.674;9.018;2023-05-21T14:34:02;24.30;99.90
4556;DHT22;2290;48.674;9.018;2023-05-21T14:36:28;24.30;99.90
4556;DHT22;2290;48.674;9.018;2023-05-21T14:38:54;24.30;99.90
4556;DHT22;2290;48.674;9.018;2023-05-21T14:41:23;24.30;99.90
4556;DHT22;2290;48.674;9.018;2023-05-21T14:43:49;24.30;99.90
4556;DHT22;2290;48.674;9.018;2023-05-21T14:46:14;24.30;99.90
4556;DHT22;2290;48.674;9.018;2023-05-21T14:48:41;24.40;99.90
4556;DHT22;2290;48.674;9.018;2023-05-21T14:51:07;24.40;99.90
4556;DHT22;2290;48.674;9.018;2023-05-21T14:53:34;24.50;99.90
4556;DHT22;2290;48.674;9.018;2023-05-21T14:56:01;24.60;99.90
4556;DHT22;2290;48.674;9.018;2023-05-21T14:58:27;24.60;99.90
4556;DHT22;2290;48.674;9.018;2023-05-21T15:00:53;24.70;99.90
4556;DHT22;2290;48.674;9.018;2023-05-21T15:03:19;24.90;99.90
4556;DHT22;2290;48.674;9.018;2023-05-21T15:05:45;25.10;99.90
4556;DHT22;2290;48.674;9.018;2023-05-21T15:08:12;25.30;99.90
4556;DHT22;2290;48.674;9.018;2023-05-21T15:10:38;25.50;99.90
4556;DHT22;2290;48.674;9.018;2023-05-21T15:13:04;25.60;99.90
4556;DHT22;2290;48.674;9.018;2023-05-21T15:15:31;25.80;99.90
4556;DHT22;2290;48.674;9.018;2023-05-21T15:17:56;26.10;99.90
4556;DHT22;2290;48.674;9.018;2023-05-21T15:20:22;26.30;99.90
4556;DHT22;2290;48.674;9.018;2023-05-21T15:22:47;26.60;99.90
4556;DHT22;2290;48.674;9.018;2023-05-21T15:25:14;26.70;99.90
4556;DHT22;2290;48.674;9.018;2023-05-21T15:27:43;26.80;99.90
4556;DHT22;2290;48.674;9.018;2023-05-21T15:30:09;26.80;99.80
4556;DHT22;2290;48.674;9.018;2023-05-21T15:32:34;26.80;99.40
4556;DHT22;2290;48.674;9.018;2023-05-21T15:35:00;26.90;99.10
4556;DHT22;2290;48.674;9.018;2023-05-21T15:37:26;26.90;98.90
4556;DHT22;2290;48.674;9.018;2023-05-21T15:39:51;27.10;99.30
4556;DHT22;2290;48.674;9.018;2023-05-21T15:42:18;27.10;98.30
4556;DHT22;2290;48.674;9.018;2023-05-21T15:44:44;27.10;98.20
4556;DHT22;2290;48.674;9.018;2023-05-21T15:47:09;27.00;98.10
4556;DHT22;2290;48.674;9.018;2023-05-21T15:49:36;26.90;97.70
4556;DHT22;2290;48.674;9.018;2023-05-21T15:52:01;26.90;98.30
4556;DHT22;2290;48.674;9.018;2023-05-21T15:54:27;26.80;98.10
4556;DHT22;2290;48.674;9.018;2023-05-21T15:56:53;26.80;97.80
4556;DHT22;2290;48.674;9.018;2023-05-21T15:59:19;26.70;97.20
4556;DHT22;2290;48.674;9.018;2023-05-21T16:01:45;26.50;96.80
4556;DHT22;2290;48.674;9.018;2023-05-21T16:04:11;26.60;97.20
4556;DHT22;2290;48.674;9.018;2023-05-21T16:06:37;26.70;97.00
4556;DHT22;2290;48.674;9.018;2023-05-21T16:09:03;26.90;96.80
4556;DHT22;2290;48.674;9.018;2023-05-21T16:11:30;27.10;96.40
4556;DHT22;2290;48.674;9.018;2023-05-21T16:13:56;27.10;95.40
4556;DHT22;2290;48.674;9.018;2023-05-21T16:16:22;27.20;95.70